createdAt,value
2023-03-05T00:01:24.927Z,21.23
2023-03-05T00:03:53.933Z,21.95
2023-03-05T00:06:21.771Z,19.90
2023-03-05T00:08:49.666Z,23.30
2023-03-05T00:11:16.748Z,19.30
2023-03-05T00:13:43.663Z,21.17
2023-03-05T00:16:13.243Z,20.77
2023-03-05T00:18:40.157Z,20.20
2023-03-05T00:21:21.704Z,21.08
2023-03-05T00:23:50.641Z,19.58
2023-03-05T00:26:22.480Z,19.35
2023-03-05T00:28:51.725Z,19.42
2023-03-05T00:31:24.613Z,18.73
2023-03-05T00:33:55.028Z,20.42
2023-03-05T00:36:22.454Z,17.73
2023-03-05T00:38:49.263Z,18.27
2023-03-05T00:41:16.144Z,20.23
2023-03-05T00:43:43.255Z,19.52
2023-03-05T00:46:10.224Z,19.33
2023-03-05T00:48:37.039Z,18.10
2023-03-05T00:51:04.102Z,19.25
2023-03-05T00:53:31.018Z,19.45
2023-03-05T00:55:58.667Z,18.65
2023-03-05T00:58:25.452Z,19.23
2023-03-05T01:00:52.270Z,18.15
2023-03-05T01:03:19.212Z,19.45
2023-03-05T01:05:45.998Z,19.17
2023-03-05T01:08:12.790Z,18.65
2023-03-05T01:10:39.564Z,20.17
2023-03-05T01:13:06.340Z,19.50
2023-03-05T01:15:33.159Z,19.05
2023-03-05T01:17:59.904Z,20.17
2023-03-05T01:20:26.663Z,19.95
2023-03-05T01:22:53.949Z,18.50
2023-03-05T01:25:20.890Z,19.50
2023-03-05T01:27:47.647Z,23.20
2023-03-05T01:30:15.752Z,18.48
2023-03-05T01:32:43.040Z,19.67
2023-03-05T01:35:15.970Z,20.23
2023-03-05T01:37:42.863Z,18.15
2023-03-05T01:40:16.100Z,20.00
2023-03-05T01:42:55.552Z,19.88
2023-03-05T01:45:22.352Z,19.58
2023-03-05T01:47:49.105Z,16.92
2023-03-05T01:50:22.177Z,17.23
2023-03-05T01:52:54.944Z,17.80
2023-03-05T01:55:25.091Z,17.20
2023-03-05T01:58:08.116Z,16.55
2023-03-05T02:00:43.112Z,18.15
2023-03-05T02:03:11.573Z,18.88
2023-03-05T02:05:41.169Z,16.38
2023-03-05T02:08:10.230Z,17.85
2023-03-05T02:10:39.444Z,18.45
2023-03-05T02:13:09.333Z,18.30
2023-03-05T02:15:37.799Z,17.80
2023-03-05T02:18:05.557Z,19.05
2023-03-05T02:20:44.845Z,19.67
2023-03-05T02:23:11.589Z,17.52
2023-03-05T02:25:38.336Z,17.00
2023-03-05T02:28:08.147Z,17.70
2023-03-05T02:30:35.612Z,18.48
2023-03-05T02:33:02.612Z,20.13
2023-03-05T02:35:29.369Z,18.83
2023-03-05T02:37:56.108Z,18.25
2023-03-05T02:40:22.876Z,20.27
2023-03-05T02:42:49.684Z,18.60
2023-03-05T02:45:16.588Z,18.35
2023-03-05T02:47:43.446Z,18.58
2023-03-05T02:50:12.207Z,18.00
2023-03-05T02:52:40.380Z,18.67
2023-03-05T02:55:07.495Z,20.00
2023-03-05T02:57:34.264Z,18.38
2023-03-05T03:00:01.082Z,19.48
2023-03-05T03:02:27.847Z,19.88
2023-03-05T03:04:54.651Z,20.92
2023-03-05T03:07:21.340Z,18.90
2023-03-05T03:09:48.175Z,18.42
2023-03-05T03:12:15.212Z,19.15
2023-03-05T03:14:42.676Z,19.98
2023-03-05T03:17:14.870Z,19.58
2023-03-05T03:19:42.821Z,19.75
2023-03-05T03:22:12.137Z,20.70
2023-03-05T03:24:41.201Z,19.27
2023-03-05T03:27:08.339Z,21.67
2023-03-05T03:29:35.209Z,20.23
2023-03-05T03:32:02.075Z,20.98
2023-03-05T03:34:28.931Z,20.05
2023-03-05T03:36:55.700Z,18.92
2023-03-05T03:39:22.566Z,20.25
2023-03-05T03:41:51.602Z,19.40
2023-03-05T03:44:20.884Z,19.98
2023-03-05T03:46:48.604Z,19.95
2023-03-05T03:49:17.796Z,20.50
2023-03-05T03:51:44.580Z,19.02
2023-03-05T03:54:11.478Z,20.92
2023-03-05T03:56:38.201Z,21.38
2023-03-05T03:59:05.031Z,19.95
2023-03-05T04:01:31.844Z,19.23
2023-03-05T04:03:58.720Z,19.80
2023-03-05T04:06:25.697Z,19.30
2023-03-05T04:08:52.445Z,18.23
2023-03-05T04:11:19.644Z,20.10
2023-03-05T04:13:47.089Z,19.55
2023-03-05T04:16:15.750Z,20.00
2023-03-05T04:18:42.591Z,20.48
2023-03-05T04:21:09.786Z,20.88
2023-03-05T04:23:36.660Z,21.00
2023-03-05T04:26:04.067Z,21.40
2023-03-05T04:28:30.859Z,21.27
2023-03-05T04:30:57.893Z,22.10
2023-03-05T04:33:24.770Z,20.20
2023-03-05T04:35:52.245Z,20.65
2023-03-05T04:38:19.229Z,21.65
2023-03-05T04:40:46.872Z,23.15
2023-03-05T04:43:13.611Z,23.38
2023-03-05T04:45:43.763Z,20.95
2023-03-05T04:48:11.169Z,20.80
2023-03-05T04:50:38.122Z,21.15
2023-03-05T04:53:05.960Z,20.88
2023-03-05T04:55:32.726Z,18.92
2023-03-05T04:57:59.590Z,19.65
2023-03-05T05:00:26.378Z,20.25
2023-03-05T05:02:53.658Z,21.33
2023-03-05T05:05:23.490Z,21.48
2023-03-05T05:07:53.436Z,20.75
2023-03-05T05:10:20.192Z,19.98
2023-03-05T05:12:46.887Z,22.00
2023-03-05T05:15:13.848Z,19.73
2023-03-05T05:17:40.807Z,20.85
2023-03-05T05:20:08.770Z,22.13
2023-03-05T05:22:35.739Z,22.42
2023-03-05T05:25:03.010Z,21.17
2023-03-05T05:27:29.765Z,20.55
2023-03-05T05:29:56.591Z,21.10
2023-03-05T05:32:24.791Z,20.05
2023-03-05T05:34:58.561Z,21.65
2023-03-05T05:37:26.176Z,20.05
2023-03-05T05:39:53.431Z,23.05
2023-03-05T05:42:23.479Z,20.90
2023-03-05T05:44:50.648Z,22.52
2023-03-05T05:47:17.884Z,23.17
2023-03-05T05:49:44.742Z,19.77
2023-03-05T05:52:11.676Z,22.15
2023-03-05T05:54:39.083Z,20.50
2023-03-05T05:57:06.592Z,21.80
2023-03-05T05:59:33.416Z,21.30
2023-03-05T06:02:00.244Z,19.65
2023-03-05T06:04:27.034Z,18.30
2023-03-05T06:06:53.750Z,20.90
2023-03-05T06:09:20.559Z,19.30
2023-03-05T06:11:47.390Z,21.25
2023-03-05T06:14:14.320Z,21.20
2023-03-05T06:16:42.414Z,19.20
2023-03-05T06:19:13.347Z,20.48
2023-03-05T06:21:40.405Z,21.70
2023-03-05T06:24:07.419Z,21.58
2023-03-05T06:26:34.228Z,21.25
2023-03-05T06:29:01.367Z,21.67
2023-03-05T06:31:29.155Z,22.60
2023-03-05T06:33:58.511Z,22.40
2023-03-05T06:36:26.076Z,20.27
2023-03-05T06:38:53.531Z,20.05
2023-03-05T06:41:26.369Z,19.58
2023-03-05T06:43:53.752Z,21.10
2023-03-05T06:46:22.029Z,20.05
2023-03-05T06:48:49.272Z,20.52
2023-03-05T06:51:24.851Z,21.33
2023-03-05T06:53:52.989Z,22.15
2023-03-05T06:56:20.821Z,21.55
2023-03-05T06:58:50.588Z,20.70
2023-03-05T07:01:18.097Z,21.60
2023-03-05T07:03:45.062Z,20.58
2023-03-05T07:06:14.521Z,23.17
2023-03-05T07:08:41.442Z,20.63
2023-03-05T07:11:12.837Z,19.73
2023-03-05T07:13:39.728Z,22.95
2023-03-05T07:16:08.759Z,21.60
2023-03-05T07:18:35.649Z,22.77
2023-03-05T07:21:07.472Z,22.35
2023-03-05T07:23:35.401Z,23.95
2023-03-05T07:26:03.633Z,24.17
2023-03-05T07:28:30.580Z,20.88
2023-03-05T07:30:59.752Z,22.83
2023-03-05T07:33:27.413Z,23.80
2023-03-05T07:35:55.065Z,24.65
2023-03-05T07:38:22.330Z,26.10
2023-03-05T07:40:49.843Z,23.88
2023-03-05T07:43:16.723Z,26.20
2023-03-05T07:45:45.595Z,26.05
2023-03-05T07:48:16.117Z,23.38
2023-03-05T07:50:43.328Z,22.80
2023-03-05T07:53:10.353Z,24.58
2023-03-05T07:55:46.302Z,26.30
2023-03-05T07:58:14.493Z,23.92
2023-03-05T08:00:41.311Z,22.75
2023-03-05T08:03:08.198Z,23.85
2023-03-05T08:05:35.140Z,26.13
2023-03-05T08:08:01.873Z,24.98
2023-03-05T08:10:28.613Z,25.30
2023-03-05T08:12:55.395Z,24.70
2023-03-05T08:15:22.195Z,24.58
2023-03-05T08:17:48.921Z,23.35
2023-03-05T08:20:15.701Z,26.42
2023-03-05T08:22:42.771Z,23.90
2023-03-05T08:25:09.742Z,23.05
2023-03-05T08:27:47.060Z,25.25
2023-03-05T08:30:17.454Z,23.15
2023-03-05T08:32:44.360Z,23.58
2023-03-05T08:35:11.336Z,24.73
2023-03-05T08:37:38.244Z,23.85
2023-03-05T08:40:05.493Z,23.52
2023-03-05T08:42:32.252Z,23.58
2023-03-05T08:44:58.962Z,23.33
2023-03-05T08:47:26.901Z,24.35
2023-03-05T08:49:55.689Z,22.90
2023-03-05T08:52:23.097Z,21.88
2023-03-05T08:54:50.453Z,24.38
2023-03-05T08:57:17.262Z,22.30
2023-03-05T08:59:44.045Z,22.60
2023-03-05T09:02:12.955Z,22.30
2023-03-05T09:04:40.161Z,22.30
2023-03-05T09:07:07.210Z,23.35
2023-03-05T09:09:34.242Z,24.23
2023-03-05T09:12:01.990Z,25.98
2023-03-05T09:14:29.728Z,24.63
2023-03-05T09:16:57.167Z,20.55
2023-03-05T09:19:24.483Z,21.63
2023-03-05T09:21:51.416Z,21.17
2023-03-05T09:24:18.147Z,23.98
2023-03-05T09:26:45.027Z,19.80
2023-03-05T09:29:12.513Z,19.13
2023-03-05T09:31:39.964Z,19.52
2023-03-05T09:34:08.230Z,20.67
2023-03-05T09:36:35.436Z,19.67
2023-03-05T09:39:02.270Z,21.52
2023-03-05T09:41:44.044Z,19.50
2023-03-05T09:44:49.220Z,21.42
2023-03-05T09:47:25.127Z,20.15
2023-03-05T09:50:01.030Z,18.98
2023-03-05T09:52:45.229Z,16.88
2023-03-05T09:55:27.869Z,19.42
2023-03-05T09:57:59.534Z,18.95
2023-03-05T10:00:39.354Z,18.80
2023-03-05T10:03:15.036Z,15.15
2023-03-05T10:05:53.951Z,17.35
2023-03-05T10:08:24.630Z,18.50
2023-03-05T10:10:53.574Z,17.23
2023-03-05T10:13:25.529Z,15.73
2023-03-05T10:15:52.206Z,16.75
2023-03-05T10:18:18.865Z,17.42
2023-03-05T10:21:06.864Z,18.15
2023-03-05T10:23:49.794Z,16.00
2023-03-05T10:26:47.423Z,18.02
2023-03-05T10:29:24.315Z,16.40
2023-03-05T10:31:53.899Z,17.35
2023-03-05T10:34:46.410Z,11.30
2023-03-05T10:37:34.775Z,10.85
2023-03-05T10:40:29.914Z,10.80
2023-03-05T10:43:22.914Z,9.52
2023-03-05T10:45:55.027Z,9.38
2023-03-05T10:48:38.049Z,9.43
2023-03-05T10:51:13.765Z,9.93
2023-03-05T10:54:11.024Z,9.68
2023-03-05T10:56:37.741Z,10.85
2023-03-05T10:59:04.480Z,10.82
2023-03-05T11:01:32.294Z,10.95
2023-03-05T11:04:05.604Z,13.35
2023-03-05T11:06:45.651Z,11.30
2023-03-05T11:09:29.259Z,10.13
2023-03-05T11:12:17.997Z,10.45
2023-03-05T11:14:46.899Z,11.07
2023-03-05T11:17:44.507Z,13.43
2023-03-05T11:20:34.365Z,10.82
2023-03-05T11:23:15.839Z,10.88
2023-03-05T11:26:04.198Z,10.52
2023-03-05T11:28:54.005Z,11.95
2023-03-05T11:31:24.354Z,12.23
2023-03-05T11:33:58.696Z,11.75
2023-03-05T11:36:37.741Z,12.30
2023-03-05T11:39:10.503Z,11.57
2023-03-05T11:41:48.544Z,12.20
2023-03-05T11:44:24.639Z,10.50
2023-03-05T11:46:56.447Z,11.75
2023-03-05T11:49:27.642Z,12.52
2023-03-05T11:52:15.414Z,10.30
2023-03-05T11:54:58.072Z,14.27
2023-03-05T11:57:25.967Z,11.35
2023-03-05T11:59:56.324Z,12.00
2023-03-05T12:02:25.625Z,11.40
2023-03-05T12:04:52.608Z,12.40
2023-03-05T12:07:38.730Z,10.75
2023-03-05T12:10:06.352Z,12.88
2023-03-05T12:12:36.101Z,14.38
2023-03-05T12:15:09.656Z,14.70
2023-03-05T12:17:55.671Z,13.63
2023-03-05T12:20:56.846Z,14.60
2023-03-05T12:23:23.823Z,15.43
2023-03-05T12:25:59.962Z,14.95
2023-03-05T12:28:52.908Z,15.88
2023-03-05T12:31:39.734Z,13.27
2023-03-05T12:34:41.819Z,15.65
2023-03-05T12:37:34.607Z,15.90
2023-03-05T12:40:04.942Z,14.25
2023-03-05T12:42:31.619Z,15.68
2023-03-05T12:45:14.618Z,12.55
2023-03-05T12:47:42.579Z,12.57
2023-03-05T12:50:29.243Z,13.30
2023-03-05T12:52:58.685Z,13.57
2023-03-05T12:55:37.597Z,15.93
2023-03-05T12:58:09.687Z,14.10
2023-03-05T13:00:43.248Z,14.20
2023-03-05T13:03:17.695Z,11.25
2023-03-05T13:05:55.778Z,11.18
2023-03-05T13:08:28.782Z,10.88
2023-03-05T13:11:02.356Z,13.05
2023-03-05T13:13:32.894Z,13.70
2023-03-05T13:16:00.881Z,12.63
2023-03-05T13:18:33.111Z,12.10
2023-03-05T13:21:14.666Z,13.55
2023-03-05T13:23:57.982Z,12.30
2023-03-05T13:26:29.898Z,10.65
2023-03-05T13:29:05.360Z,11.98
2023-03-05T13:31:33.740Z,12.18
2023-03-05T13:34:15.852Z,12.73
2023-03-05T13:36:48.316Z,11.00
2023-03-05T13:39:28.607Z,10.07
2023-03-05T13:42:01.188Z,11.88
2023-03-05T13:44:29.525Z,10.10
2023-03-05T13:47:08.273Z,12.80
2023-03-05T13:49:35.195Z,11.23
2023-03-05T13:52:03.185Z,10.75
2023-03-05T13:54:30.487Z,13.05
2023-03-05T13:57:04.322Z,11.30
2023-03-05T13:59:34.030Z,13.45
2023-03-05T14:02:04.634Z,13.60
2023-03-05T14:04:37.046Z,11.77
2023-03-05T14:07:18.837Z,11.68
2023-03-05T14:09:52.064Z,12.07
2023-03-05T14:12:38.758Z,12.70
2023-03-05T14:15:20.505Z,11.60
2023-03-05T14:17:47.791Z,12.57
2023-03-05T14:20:22.987Z,11.07
2023-03-05T14:22:54.761Z,12.55
2023-03-05T14:25:38.143Z,12.45
2023-03-05T14:28:18.161Z,11.70
2023-03-05T14:30:46.189Z,13.40
2023-03-05T14:33:13.596Z,12.48
2023-03-05T14:35:40.646Z,12.40
2023-03-05T14:38:08.475Z,13.65
2023-03-05T14:40:36.989Z,12.07
2023-03-05T14:43:10.679Z,12.45
2023-03-05T14:45:39.739Z,12.88
2023-03-05T14:48:08.021Z,13.57
2023-03-05T14:50:56.476Z,13.27
2023-03-05T14:53:27.180Z,14.20
2023-03-05T14:55:56.805Z,13.25
2023-03-05T14:58:27.531Z,16.45
2023-03-05T15:00:55.288Z,13.13
2023-03-05T15:03:23.257Z,14.05
2023-03-05T15:05:52.272Z,14.30
2023-03-05T15:08:25.672Z,13.85
2023-03-05T15:10:53.017Z,14.50
2023-03-05T15:13:20.597Z,12.95
2023-03-05T15:15:48.584Z,13.43
2023-03-05T15:18:17.591Z,12.55
2023-03-05T15:20:45.786Z,13.93
2023-03-05T15:23:12.967Z,12.82
2023-03-05T15:25:40.004Z,15.20
2023-03-05T15:28:06.836Z,18.92
2023-03-05T15:30:39.241Z,15.43
2023-03-05T15:33:11.621Z,15.25
2023-03-05T15:35:38.541Z,14.90
2023-03-05T15:38:05.535Z,15.35
2023-03-05T15:40:33.039Z,14.82
2023-03-05T15:43:00.760Z,13.73
2023-03-05T15:45:28.050Z,18.65
2023-03-05T15:47:54.808Z,20.75
2023-03-05T15:50:22.584Z,17.75
2023-03-05T15:52:49.649Z,15.57
2023-03-05T15:55:18.377Z,16.20
2023-03-05T15:57:50.236Z,15.70
2023-03-05T16:00:23.832Z,14.88
2023-03-05T16:02:52.410Z,12.52
2023-03-05T16:05:19.138Z,14.82
2023-03-05T16:07:49.194Z,16.00
2023-03-05T16:10:21.740Z,13.55
2023-03-05T16:12:51.512Z,16.65
2023-03-05T16:15:21.546Z,15.48
2023-03-05T16:17:53.568Z,17.30
2023-03-05T16:20:20.834Z,20.10
2023-03-05T16:22:47.664Z,15.85
2023-03-05T16:25:14.511Z,15.63
2023-03-05T16:27:41.281Z,15.18
2023-03-05T16:30:09.062Z,16.20
2023-03-05T16:32:38.128Z,15.25
2023-03-05T16:35:05.756Z,17.70
2023-03-05T16:37:32.556Z,16.90
2023-03-05T16:39:59.621Z,20.38
2023-03-05T16:42:26.689Z,32.17
2023-03-05T16:44:54.124Z,18.65
2023-03-05T16:47:20.901Z,16.02
2023-03-05T16:49:47.713Z,15.45
2023-03-05T16:52:19.148Z,15.23
2023-03-05T16:54:47.191Z,16.77
2023-03-05T16:57:14.645Z,15.52
2023-03-05T16:59:42.062Z,16.40
2023-03-05T17:02:08.859Z,18.85
2023-03-05T17:04:35.734Z,15.95
2023-03-05T17:07:04.148Z,14.75
2023-03-05T17:09:31.124Z,13.65
2023-03-05T17:11:57.961Z,17.25
2023-03-05T17:14:24.934Z,16.73
2023-03-05T17:16:51.761Z,16.90
2023-03-05T17:19:18.804Z,15.27
2023-03-05T17:21:45.914Z,15.52
2023-03-05T17:24:12.677Z,16.00
2023-03-05T17:26:39.502Z,15.15
2023-03-05T17:29:07.347Z,13.80
2023-03-05T17:31:34.702Z,14.77
2023-03-05T17:34:01.510Z,14.27
2023-03-05T17:36:28.309Z,14.30
2023-03-05T17:38:55.137Z,14.90
2023-03-05T17:41:22.831Z,14.40
2023-03-05T17:43:50.353Z,15.15
2023-03-05T17:46:18.816Z,14.60
2023-03-05T17:48:46.130Z,13.95
2023-03-05T17:51:16.320Z,14.85
2023-03-05T17:53:43.942Z,14.20
2023-03-05T17:56:12.809Z,13.70
2023-03-05T17:58:40.351Z,13.52
2023-03-05T18:01:08.352Z,15.07
2023-03-05T18:03:36.363Z,16.15
2023-03-05T18:06:04.940Z,15.57
2023-03-05T18:08:31.932Z,15.32
2023-03-05T18:10:59.067Z,13.75
2023-03-05T18:13:25.816Z,15.80
2023-03-05T18:15:52.622Z,16.60
2023-03-05T18:18:19.498Z,15.88
2023-03-05T18:20:47.452Z,13.45
2023-03-05T18:23:14.340Z,12.95
2023-03-05T18:25:41.141Z,12.40
2023-03-05T18:28:11.364Z,13.93
2023-03-05T18:30:40.527Z,14.27
2023-03-05T18:33:08.807Z,12.52
2023-03-05T18:35:36.559Z,10.48
2023-03-05T18:38:03.313Z,13.82
2023-03-05T18:40:32.673Z,17.00
2023-03-05T18:43:01.009Z,16.58
2023-03-05T18:45:29.072Z,14.32
2023-03-05T18:47:56.743Z,12.48
2023-03-05T18:50:26.623Z,14.50
2023-03-05T18:52:53.896Z,13.65
2023-03-05T18:55:28.048Z,15.40
2023-03-05T18:57:55.417Z,18.90
2023-03-05T19:00:28.051Z,17.45
2023-03-05T19:02:55.857Z,16.65
2023-03-05T19:05:25.336Z,16.40
2023-03-05T19:07:52.596Z,17.15
2023-03-05T19:10:19.469Z,14.25
2023-03-05T19:12:49.882Z,13.90
2023-03-05T19:15:17.693Z,10.85
2023-03-05T19:17:44.510Z,10.93
2023-03-05T19:20:15.908Z,11.05
2023-03-05T19:22:42.980Z,10.50
2023-03-05T19:25:11.097Z,11.05
2023-03-05T19:27:38.205Z,11.45
2023-03-05T19:30:06.289Z,10.70
2023-03-05T19:32:33.210Z,11.80
2023-03-05T19:35:00.180Z,15.73
2023-03-05T19:37:27.313Z,16.02
2023-03-05T19:39:54.304Z,16.73
2023-03-05T19:42:21.085Z,16.63
2023-03-05T19:44:47.851Z,15.15
2023-03-05T19:47:14.753Z,16.60
2023-03-05T19:49:41.545Z,13.57
2023-03-05T19:52:08.385Z,12.80
2023-03-05T19:54:35.212Z,13.68
2023-03-05T19:57:02.026Z,15.95
2023-03-05T19:59:28.840Z,14.27
2023-03-05T20:01:57.436Z,11.80
2023-03-05T20:04:25.148Z,12.75
2023-03-05T20:06:52.103Z,11.65
2023-03-05T20:09:18.984Z,11.73
2023-03-05T20:11:46.425Z,11.00
2023-03-05T20:14:14.497Z,10.38
2023-03-05T20:16:43.258Z,11.55
2023-03-05T20:19:17.722Z,10.82
2023-03-05T20:21:45.137Z,10.30
2023-03-05T20:24:15.725Z,10.93
2023-03-05T20:26:43.956Z,12.55
2023-03-05T20:29:11.381Z,10.80
2023-03-05T20:31:38.500Z,11.75
2023-03-05T20:34:07.482Z,11.25
2023-03-05T20:36:37.528Z,12.00
2023-03-05T20:39:05.993Z,10.25
2023-03-05T20:41:34.596Z,10.63
2023-03-05T20:44:03.323Z,10.07
2023-03-05T20:46:33.097Z,10.98
2023-03-05T20:49:02.095Z,10.60
2023-03-05T20:51:37.888Z,11.52
2023-03-05T20:54:10.939Z,10.90
2023-03-05T20:56:38.181Z,9.40
2023-03-05T20:59:08.685Z,11.40
2023-03-05T21:01:38.679Z,10.32
2023-03-05T21:04:06.641Z,13.15
2023-03-05T21:06:33.771Z,11.02
2023-03-05T21:09:00.814Z,12.60
2023-03-05T21:11:28.409Z,10.93
2023-03-05T21:13:55.263Z,11.65
2023-03-05T21:16:25.417Z,11.25
2023-03-05T21:18:52.940Z,11.82
2023-03-05T21:21:20.269Z,11.32
2023-03-05T21:23:47.175Z,11.27
2023-03-05T21:26:14.143Z,11.57
2023-03-05T21:28:41.342Z,11.77
2023-03-05T21:31:10.682Z,11.43
2023-03-05T21:33:37.855Z,12.20
2023-03-05T21:36:05.142Z,11.13
2023-03-05T21:38:33.994Z,13.10
2023-03-05T21:41:02.161Z,13.55
2023-03-05T21:43:31.208Z,10.90
2023-03-05T21:45:59.954Z,11.65
2023-03-05T21:48:26.874Z,11.05
2023-03-05T21:50:55.132Z,12.77
2023-03-05T21:53:22.193Z,11.45
2023-03-05T21:56:15.367Z,12.82
2023-03-05T21:58:42.087Z,15.65
2023-03-05T22:01:11.702Z,14.40
2023-03-05T22:03:38.893Z,13.38
2023-03-05T22:06:09.968Z,14.43
2023-03-05T22:08:36.764Z,14.48
2023-03-05T22:11:09.564Z,16.27
2023-03-05T22:13:37.656Z,16.13
2023-03-05T22:16:05.419Z,17.38
2023-03-05T22:18:32.908Z,14.65
2023-03-05T22:21:00.354Z,15.77
2023-03-05T22:23:31.357Z,14.38
2023-03-05T22:26:04.753Z,16.27
2023-03-05T22:28:33.060Z,13.30
2023-03-05T22:30:59.996Z,12.57
2023-03-05T22:33:27.484Z,10.43
2023-03-05T22:35:54.400Z,11.88
2023-03-05T22:38:21.888Z,10.77
2023-03-05T22:40:49.776Z,11.73
2023-03-05T22:43:18.183Z,10.90
2023-03-05T22:45:45.187Z,15.13
2023-03-05T22:48:12.721Z,12.77
2023-03-05T22:50:41.243Z,14.20
2023-03-05T22:53:08.323Z,14.05
2023-03-05T22:55:39.022Z,14.55
2023-03-05T22:58:05.822Z,13.90
2023-03-05T23:00:32.527Z,14.50
2023-03-05T23:02:59.289Z,13.32
2023-03-05T23:05:26.014Z,12.98
2023-03-05T23:07:52.843Z,13.32
2023-03-05T23:10:23.011Z,13.38
2023-03-05T23:12:52.205Z,13.23
2023-03-05T23:15:25.193Z,13.23
2023-03-05T23:17:52.103Z,12.77
2023-03-05T23:20:25.521Z,12.02
2023-03-05T23:22:53.650Z,12.13
2023-03-05T23:25:20.795Z,12.00
2023-03-05T23:27:48.561Z,13.05
2023-03-05T23:30:19.981Z,14.57
2023-03-05T23:32:52.666Z,12.05
2023-03-05T23:35:40.221Z,11.52
2023-03-05T23:38:13.484Z,11.10
2023-03-05T23:40:43.110Z,11.23
2023-03-05T23:43:10.826Z,12.90
2023-03-05T23:45:37.851Z,12.25
2023-03-05T23:48:04.856Z,12.55
2023-03-05T23:50:34.128Z,12.38
2023-03-05T23:53:02.287Z,11.60
2023-03-05T23:55:36.009Z,12.52
2023-03-05T23:58:03.567Z,12.85
